Date,TemperatureHighF,TemperatureAvgF,TemperatureLowF,DewpointHighF,DewpointAvgF,DewpointLowF,HumidityHigh,HumidityAvg,HumidityLow,PressureMaxIn,PressureMinIn,WindSpeedMaxMPH,WindSpeedAvgMPH,GustSpeedMaxMPH,PrecipitationSumIn
2013-9-1,93.6,78.6,69.8,92.9,78.0,69.2,98,98,98,29.69,29.57,5,1,0,0.14
2013-9-2,91.2,78.7,71.6,90.6,78.1,71.0,98,98,98,29.65,29.57,7,1,0,0.00
2013-9-3,88.7,78.1,71.2,88.1,77.5,70.6,98,98,98,29.76,29.56,4,1,0,0.00
2013-9-4,84.6,73.6,65.7,84.0,73.0,65.1,98,98,98,29.91,29.76,5,1,0,0.00
2013-9-5,88.7,74.3,63.0,88.1,73.7,62.4,98,98,98,29.92,29.81,3,0,0,0.00
2013-9-6,80.8,71.0,62.4,80.2,70.4,61.8,98,98,98,30.04,29.92,5,2,0,0.00
2013-9-7,82.0,68.7,57.7,81.4,68.1,57.1,98,98,98,29.96,29.77,5,1,0,0.00
2013-9-8,89.2,74.7,62.6,88.6,74.1,62.0,98,98,98,29.82,29.69,4,1,0,0.00
2013-9-9,80.2,74.2,68.7,79.6,73.6,68.1,98,98,98,29.99,29.82,4,1,0,0.00
2013-9-10,92.8,78.9,68.2,92.1,78.3,67.6,98,98,98,30.02,29.92,8,1,0,0.00
2013-9-11,92.7,80.3,70.3,92.0,79.7,69.7,98,98,98,29.99,29.85,4,1,0,0.00
2013-9-12,92.1,77.8,68.9,91.4,77.2,68.3,98,98,98,29.86,29.57,14,1,0,0.11
2013-9-13,81.0,72.1,64.0,80.4,71.5,63.4,98,98,98,29.73,29.53,6,2,0,0.01
2013-9-14,72.9,63.6,55.9,72.3,63.0,55.3,98,98,98,29.91,29.73,6,2,0,0.00
2013-9-18,57.4,57.0,56.8,56.8,56.4,56.2,98,98,98,30.03,30.02,0,0,0,0.00
2013-9-19,79.9,64.3,51.6,79.3,63.7,51.1,98,98,98,30.03,29.91,5,1,0,0.00
2013-9-20,79.9,67.6,56.7,79.3,67.0,56.1,98,98,98,29.92,29.78,4,0,0,0.00
2013-9-21,76.5,67.2,58.8,75.9,66.6,58.2,98,98,98,29.79,29.52,4,1,0,0.74
2013-9-22,76.8,65.6,58.5,76.2,65.0,57.9,98,98,98,29.74,29.54,6,1,0,0.13
2013-9-23,69.6,59.5,51.1,69.0,58.9,50.6,98,98,98,29.91,29.74,5,2,0,0.00
2013-9-24,74.8,58.9,48.6,74.2,58.4,48.1,98,98,98,29.94,29.77,5,1,0,0.00
2013-9-25,75.7,62.2,50.0,75.1,61.6,49.5,98,98,98,29.79,29.69,5,1,0,0.00
2013-9-26,77.2,65.4,57.2,76.6,64.8,56.6,98,98,98,29.88,29.72,5,1,0,0.00
2013-9-27,74.8,61.9,53.1,74.2,61.3,52.5,98,98,98,30.03,29.87,5,1,0,0.00
2013-9-28,71.1,62.3,52.9,70.5,61.7,52.4,98,98,98,30.10,30.01,6,1,0,0.00
2013-9-29,74.5,62.2,52.7,73.9,61.6,52.2,98,98,98,30.01,29.86,4,1,0,0.00
2013-9-30,75.0,62.0,53.1,74.4,61.4,52.5,98,98,98,29.92,29.81,4,0,0,0.00